createdAt,value
2022-11-12T00:02:19.154Z,8.60
2022-11-12T00:05:11.352Z,8.60
2022-11-12T00:08:03.887Z,8.60
2022-11-12T00:10:56.116Z,8.60
2022-11-12T00:13:48.247Z,8.60
2022-11-12T00:16:40.387Z,8.50
2022-11-12T00:19:32.535Z,8.50
2022-11-12T00:22:24.728Z,8.50
2022-11-12T00:25:16.891Z,8.50
2022-11-12T00:28:10.747Z,8.50
2022-11-12T00:31:11.376Z,8.50
2022-11-12T00:34:03.535Z,8.50
2022-11-12T00:36:55.665Z,8.50
2022-11-12T00:39:47.777Z,8.50
2022-11-12T00:42:39.869Z,8.50
2022-11-12T00:45:39.537Z,8.40
2022-11-12T00:48:31.808Z,8.40
2022-11-12T00:51:24.037Z,8.50
2022-11-12T00:54:16.241Z,8.60
2022-11-12T00:57:08.384Z,8.70
2022-11-12T01:00:00.546Z,8.70
2022-11-12T01:02:52.770Z,8.80
2022-11-12T01:05:44.907Z,8.80
2022-11-12T01:08:38.020Z,8.80
2022-11-12T01:11:30.514Z,8.80
2022-11-12T01:14:22.656Z,8.80
2022-11-12T01:17:14.810Z,8.80
2022-11-12T01:20:07.603Z,8.80
2022-11-12T01:22:59.763Z,8.80
2022-11-12T01:25:51.910Z,8.80
2022-11-12T01:28:44.539Z,8.70
2022-11-12T01:31:38.344Z,8.80
2022-11-12T01:34:30.694Z,8.80
2022-11-12T01:37:22.813Z,8.80
2022-11-12T01:40:15.130Z,8.80
2022-11-12T01:43:14.138Z,8.80
2022-11-12T01:46:18.726Z,8.80
2022-11-12T01:49:16.268Z,8.90
2022-11-12T01:52:20.505Z,8.90
2022-11-12T01:55:16.799Z,8.80
2022-11-12T01:58:14.396Z,8.70
2022-11-12T02:01:06.856Z,8.70
2022-11-12T02:03:59.162Z,8.60
2022-11-12T02:06:52.963Z,8.60
2022-11-12T02:09:45.092Z,8.60
2022-11-12T02:12:55.678Z,8.60
2022-11-12T02:15:47.869Z,8.50
2022-11-12T02:18:39.979Z,8.50
2022-11-12T02:21:32.868Z,8.50
2022-11-12T02:24:24.970Z,8.50
2022-11-12T02:27:17.221Z,8.50
2022-11-12T02:30:09.826Z,8.50
2022-11-12T02:33:02.095Z,8.40
2022-11-12T02:35:54.308Z,8.40
2022-11-12T02:38:46.455Z,8.30
2022-11-12T02:41:38.690Z,8.30
2022-11-12T02:44:31.632Z,8.30
2022-11-12T02:47:23.768Z,8.20
2022-11-12T02:50:16.016Z,8.20
2022-11-12T02:53:08.150Z,8.20
2022-11-12T02:56:01.255Z,8.30
2022-11-12T02:58:53.377Z,8.40
2022-11-12T03:01:45.511Z,8.40
2022-11-12T03:04:37.640Z,8.40
2022-11-12T03:07:29.733Z,8.40
2022-11-12T03:10:21.877Z,8.40
2022-11-12T03:13:14.050Z,8.40
2022-11-12T03:16:06.667Z,8.40
2022-11-12T03:18:58.793Z,8.40
2022-11-12T03:21:50.929Z,8.40
2022-11-12T03:24:43.084Z,8.40
2022-11-12T03:27:35.396Z,8.50
2022-11-12T03:30:29.524Z,8.40
2022-11-12T03:33:21.651Z,8.40
2022-11-12T03:36:13.795Z,8.30
2022-11-12T03:39:06.021Z,8.30
2022-11-12T03:41:58.099Z,8.30
2022-11-12T03:44:50.214Z,8.30
2022-11-12T03:47:44.173Z,8.30
2022-11-12T03:50:36.363Z,8.40
2022-11-12T03:53:28.537Z,8.40
2022-11-12T03:56:20.652Z,8.40
2022-11-12T03:59:12.757Z,8.10
2022-11-12T04:02:04.883Z,7.90
2022-11-12T04:05:16.110Z,7.80
2022-11-12T04:08:35.562Z,7.50
2022-11-12T04:11:27.745Z,7.20
2022-11-12T04:14:19.934Z,7.10
2022-11-12T04:17:30.582Z,7.00
2022-11-12T04:20:41.433Z,7.00
2022-11-12T04:23:33.553Z,7.00
2022-11-12T04:26:25.810Z,6.90
2022-11-12T04:29:37.518Z,6.80
2022-11-12T04:32:31.865Z,6.90
2022-11-12T04:35:25.864Z,6.80
2022-11-12T04:38:17.989Z,6.70
2022-11-12T04:41:28.756Z,6.60
2022-11-12T04:44:39.199Z,6.50
2022-11-12T04:47:46.558Z,6.40
2022-11-12T04:50:39.632Z,6.40
2022-11-12T04:53:31.758Z,6.30
2022-11-12T04:56:23.876Z,6.20
2022-11-12T04:59:16.005Z,6.10
2022-11-12T05:02:08.212Z,6.10
2022-11-12T05:05:00.326Z,6.10
2022-11-12T05:07:52.462Z,6.00
2022-11-12T05:10:45.128Z,5.90
2022-11-12T05:13:37.227Z,5.80
2022-11-12T05:16:29.317Z,5.80
2022-11-12T05:19:21.503Z,5.70
2022-11-12T05:22:27.417Z,5.70
2022-11-12T05:25:25.762Z,5.80
2022-11-12T05:28:17.900Z,5.80
2022-11-12T05:31:10.026Z,5.70
2022-11-12T05:34:02.156Z,5.70
2022-11-12T05:36:54.369Z,5.70
2022-11-12T05:39:46.507Z,5.50
2022-11-12T05:42:38.716Z,5.50
2022-11-12T05:45:30.826Z,5.50
2022-11-12T05:48:24.584Z,5.60
2022-11-12T05:51:17.148Z,5.60
2022-11-12T05:54:09.481Z,5.50
2022-11-12T05:57:01.623Z,5.60
2022-11-12T05:59:53.724Z,5.40
2022-11-12T06:02:45.952Z,5.30
2022-11-12T06:05:38.541Z,5.40
2022-11-12T06:08:30.861Z,5.50
2022-11-12T06:11:23.022Z,5.60
2022-11-12T06:14:15.139Z,5.60
2022-11-12T06:17:07.242Z,5.60
2022-11-12T06:19:59.393Z,5.50
2022-11-12T06:22:51.581Z,5.60
2022-11-12T06:25:43.704Z,5.40
2022-11-12T06:28:35.950Z,5.00
2022-11-12T06:31:28.190Z,4.90
2022-11-12T06:34:20.358Z,5.00
2022-11-12T06:37:12.501Z,5.10
2022-11-12T06:40:05.281Z,5.20
2022-11-12T06:42:58.572Z,5.30
2022-11-12T06:45:50.907Z,5.40
2022-11-12T06:48:43.267Z,5.50
2022-11-12T06:51:35.818Z,5.70
2022-11-12T06:54:28.200Z,5.90
2022-11-12T06:57:20.385Z,6.10
2022-11-12T07:00:13.097Z,6.20
2022-11-12T07:03:09.700Z,6.20
2022-11-12T07:06:09.916Z,6.30
2022-11-12T07:09:02.172Z,6.20
2022-11-12T07:11:54.295Z,6.20
2022-11-12T07:14:46.737Z,6.30
2022-11-12T07:17:39.109Z,6.40
2022-11-12T07:20:31.279Z,6.60
2022-11-12T07:23:23.664Z,6.70
2022-11-12T07:26:29.807Z,6.70
2022-11-12T07:29:42.744Z,6.80
2022-11-12T07:32:37.430Z,6.90
2022-11-12T07:35:34.120Z,7.10
2022-11-12T07:38:27.554Z,7.10
2022-11-12T07:41:24.893Z,7.20
2022-11-12T07:44:17.037Z,7.40
2022-11-12T07:47:09.176Z,7.60
2022-11-12T07:50:01.405Z,7.90
2022-11-12T07:52:53.540Z,8.30
2022-11-12T07:55:56.979Z,8.50
2022-11-12T07:58:50.547Z,8.70
2022-11-12T08:01:42.893Z,8.60
2022-11-12T08:04:35.731Z,8.60
2022-11-12T08:07:28.504Z,8.70
2022-11-12T08:10:20.740Z,8.80
2022-11-12T08:13:12.885Z,9.10
2022-11-12T08:16:05.256Z,9.70
2022-11-12T08:18:57.593Z,10.50
2022-11-12T08:21:49.747Z,11.20
2022-11-12T08:24:41.890Z,11.60
2022-11-12T08:27:34.342Z,12.00
2022-11-12T08:30:27.567Z,12.30
2022-11-12T08:33:19.814Z,12.20
2022-11-12T08:36:14.243Z,12.00
2022-11-12T08:39:07.414Z,11.90
2022-11-12T08:41:59.534Z,11.70
2022-11-12T08:44:51.691Z,11.50
2022-11-12T08:47:43.849Z,11.50
2022-11-12T08:50:37.226Z,11.50
2022-11-12T08:53:29.409Z,11.50
2022-11-12T08:56:21.547Z,11.80
2022-11-12T08:59:13.827Z,12.20
2022-11-12T09:02:06.754Z,12.70
2022-11-12T09:04:58.906Z,12.70
2022-11-12T09:08:00.967Z,12.70
2022-11-12T09:10:53.232Z,12.80
2022-11-12T09:13:45.454Z,12.90
2022-11-12T09:16:37.611Z,13.00
2022-11-12T09:19:29.727Z,12.70
2022-11-12T09:22:21.851Z,12.50
2022-11-12T09:25:14.063Z,12.60
2022-11-12T09:28:17.739Z,12.30
2022-11-12T09:31:09.933Z,11.90
2022-11-12T09:34:02.070Z,11.80
2022-11-12T09:36:55.302Z,11.60
2022-11-12T09:39:47.501Z,11.60
2022-11-12T09:42:40.277Z,11.50
2022-11-12T09:45:33.381Z,11.50
2022-11-12T09:48:35.375Z,11.30
2022-11-12T09:51:43.531Z,11.30
2022-11-12T09:54:36.989Z,11.10
2022-11-12T09:57:29.154Z,11.00
2022-11-12T10:00:22.025Z,11.00
2022-11-12T10:03:53.639Z,10.90
2022-11-12T10:07:00.754Z,10.80
2022-11-12T10:10:01.085Z,10.70
2022-11-12T10:13:19.437Z,10.70
2022-11-12T10:16:58.940Z,10.60
2022-11-12T10:20:02.444Z,10.70
2022-11-12T10:23:15.317Z,10.80
2022-11-12T10:26:17.377Z,10.70
2022-11-12T10:29:22.624Z,10.70
2022-11-12T10:32:16.258Z,10.70
2022-11-12T10:35:08.928Z,10.70
2022-11-12T10:38:12.545Z,10.80
2022-11-12T10:41:33.256Z,10.80
2022-11-12T10:44:27.808Z,10.90
2022-11-12T10:47:23.177Z,10.90
2022-11-12T10:50:39.356Z,11.00
2022-11-12T10:53:34.836Z,11.20
2022-11-12T10:56:31.517Z,11.60
2022-11-12T10:59:25.216Z,11.70
2022-11-12T11:02:19.043Z,11.90
2022-11-12T11:05:27.905Z,12.10
2022-11-12T11:08:37.717Z,12.20
2022-11-12T11:11:31.599Z,11.80
2022-11-12T11:14:23.700Z,11.80
2022-11-12T11:17:19.142Z,11.90
2022-11-12T11:20:29.009Z,12.00
2022-11-12T11:23:47.371Z,12.10
2022-11-12T11:27:03.945Z,12.10
2022-11-12T11:30:02.617Z,12.20
2022-11-12T11:33:39.302Z,12.30
2022-11-12T11:37:03.019Z,12.10
2022-11-12T11:40:04.282Z,12.20
2022-11-12T11:43:16.426Z,12.30
2022-11-12T11:46:32.740Z,12.40
2022-11-12T11:49:27.594Z,12.40
2022-11-12T11:52:19.704Z,12.50
2022-11-12T11:55:33.274Z,12.60
2022-11-12T11:58:57.520Z,12.60
2022-11-12T12:01:52.456Z,12.50
2022-11-12T12:04:56.946Z,12.50
2022-11-12T12:08:02.381Z,12.60
2022-11-12T12:11:17.489Z,12.80
2022-11-12T12:14:24.602Z,12.90
2022-11-12T12:17:31.878Z,12.90
2022-11-12T12:20:35.695Z,12.80
2022-11-12T12:23:33.638Z,12.60
2022-11-12T12:26:43.884Z,12.50
2022-11-12T12:29:58.684Z,12.40
2022-11-12T12:33:02.568Z,12.30
2022-11-12T12:36:05.708Z,12.20
2022-11-12T12:39:22.845Z,12.30
2022-11-12T12:42:35.270Z,12.30
2022-11-12T12:45:46.408Z,12.40
2022-11-12T12:48:42.011Z,12.40
2022-11-12T12:51:35.392Z,12.50
2022-11-12T12:54:39.497Z,12.50
2022-11-12T12:57:34.925Z,12.50
2022-11-12T13:00:41.064Z,12.60
2022-11-12T13:04:04.630Z,12.70
2022-11-12T13:06:57.065Z,12.70
2022-11-12T13:09:49.225Z,12.70
2022-11-12T13:13:05.102Z,12.70
2022-11-12T13:15:59.875Z,12.80
2022-11-12T13:18:52.017Z,12.90
2022-11-12T13:21:44.662Z,12.90
2022-11-12T13:25:07.790Z,13.00
2022-11-12T13:28:02.639Z,13.00
2022-11-12T13:30:54.784Z,12.90
2022-11-12T13:33:48.448Z,13.00
2022-11-12T13:36:40.827Z,13.00
2022-11-12T13:39:36.254Z,13.00
2022-11-12T13:42:46.825Z,13.10
2022-11-12T13:45:45.220Z,13.10
2022-11-12T13:48:46.744Z,13.10
2022-11-12T13:51:48.666Z,13.10
2022-11-12T13:54:41.180Z,13.20
2022-11-12T13:57:33.561Z,13.30
2022-11-12T14:00:27.819Z,13.30
2022-11-12T14:03:20.974Z,13.40
2022-11-12T14:06:18.177Z,13.50
2022-11-12T14:09:22.421Z,13.40
2022-11-12T14:12:33.459Z,13.50
2022-11-12T14:15:48.997Z,13.50
2022-11-12T14:19:02.247Z,13.40
2022-11-12T14:22:02.355Z,13.40
2022-11-12T14:25:02.026Z,13.40
2022-11-12T14:27:57.380Z,13.40
2022-11-12T14:30:49.604Z,13.40
2022-11-12T14:33:41.743Z,13.20
2022-11-12T14:36:33.923Z,13.20
2022-11-12T14:39:28.685Z,13.10
2022-11-12T14:42:20.899Z,13.00
2022-11-12T14:45:18.243Z,12.90
2022-11-12T14:48:10.455Z,13.00
2022-11-12T14:51:08.589Z,13.10
2022-11-12T14:54:05.123Z,13.10
2022-11-12T14:56:59.441Z,13.10
2022-11-12T14:59:51.733Z,13.10
2022-11-12T15:02:57.312Z,13.10
2022-11-12T15:05:57.263Z,13.00
2022-11-12T15:08:58.485Z,13.00
2022-11-12T15:11:50.630Z,12.90
2022-11-12T15:14:42.813Z,12.90
2022-11-12T15:17:36.342Z,12.80
2022-11-12T15:20:28.717Z,12.80
2022-11-12T15:23:20.979Z,12.80
2022-11-12T15:26:23.282Z,12.80
2022-11-12T15:29:33.915Z,12.80
2022-11-12T15:32:26.481Z,12.80
2022-11-12T15:35:33.788Z,12.70
2022-11-12T15:38:49.059Z,12.70
2022-11-12T15:41:41.304Z,12.80
2022-11-12T15:44:36.615Z,12.70
2022-11-12T15:47:29.636Z,12.70
2022-11-12T15:50:24.521Z,12.60
2022-11-12T15:53:17.099Z,12.60
2022-11-12T15:56:15.831Z,12.60
2022-11-12T15:59:15.049Z,12.50
2022-11-12T16:02:15.080Z,12.50
2022-11-12T16:05:13.864Z,12.50
2022-11-12T16:08:06.181Z,12.50
2022-11-12T16:11:00.022Z,12.30
2022-11-12T16:13:52.391Z,12.30
2022-11-12T16:16:44.506Z,12.20
2022-11-12T16:19:36.632Z,12.20
2022-11-12T16:22:28.763Z,12.20
2022-11-12T16:25:21.337Z,12.20
2022-11-12T16:28:18.463Z,12.10
2022-11-12T16:31:10.658Z,12.00
2022-11-12T16:34:02.795Z,11.80
2022-11-12T16:36:55.133Z,11.70
2022-11-12T16:39:47.272Z,11.60
2022-11-12T16:42:45.505Z,11.50
2022-11-12T16:45:42.841Z,11.40
2022-11-12T16:48:35.605Z,11.30
2022-11-12T16:51:27.770Z,11.30
2022-11-12T16:54:19.901Z,11.30
2022-11-12T16:57:12.252Z,11.20
2022-11-12T17:00:06.430Z,11.10
2022-11-12T17:02:58.542Z,11.10
2022-11-12T17:05:53.715Z,11.10
2022-11-12T17:08:48.055Z,11.00
2022-11-12T17:11:40.316Z,11.00
2022-11-12T17:14:32.467Z,11.00
2022-11-12T17:17:24.603Z,10.90
2022-11-12T17:20:16.778Z,11.00
2022-11-12T17:23:08.909Z,11.10
2022-11-12T17:26:02.761Z,11.20
2022-11-12T17:29:01.113Z,11.20
2022-11-12T17:31:55.746Z,11.20
2022-11-12T17:34:47.963Z,11.20
2022-11-12T17:37:40.089Z,11.20
2022-11-12T17:40:32.273Z,11.20
2022-11-12T17:43:25.187Z,11.30
2022-11-12T17:46:17.499Z,11.30
2022-11-12T17:49:10.056Z,11.30
2022-11-12T17:52:02.212Z,11.30
2022-11-12T17:54:54.415Z,11.20
2022-11-12T17:57:48.465Z,11.10
2022-11-12T18:00:40.666Z,11.10
2022-11-12T18:03:32.871Z,11.10
2022-11-12T18:06:30.180Z,11.00
2022-11-12T18:09:22.506Z,10.90
2022-11-12T18:12:15.358Z,10.90
2022-11-12T18:15:08.170Z,10.90
2022-11-12T18:18:00.311Z,10.90
2022-11-12T18:20:52.508Z,10.90
2022-11-12T18:23:45.273Z,10.90
2022-11-12T18:26:37.386Z,10.80
2022-11-12T18:29:29.585Z,10.80
2022-11-12T18:32:21.685Z,10.70
2022-11-12T18:35:13.989Z,10.70
2022-11-12T18:38:06.107Z,10.80
2022-11-12T18:41:05.068Z,10.70
2022-11-12T18:43:57.382Z,10.70
2022-11-12T18:46:49.535Z,10.60
2022-11-12T18:49:41.841Z,10.60
2022-11-12T18:52:33.954Z,10.50
2022-11-12T18:55:26.130Z,10.60
2022-11-12T18:58:18.559Z,10.60
2022-11-12T19:01:12.915Z,10.60
2022-11-12T19:04:06.220Z,10.60
2022-11-12T19:06:58.394Z,10.60
2022-11-12T19:09:50.616Z,10.60
2022-11-12T19:12:42.883Z,10.60
2022-11-12T19:15:35.231Z,10.50
2022-11-12T19:18:27.665Z,10.60
2022-11-12T19:21:25.266Z,10.50
2022-11-12T19:24:17.488Z,10.40
2022-11-12T19:27:09.591Z,10.30
2022-11-12T19:30:03.433Z,10.20
2022-11-12T19:32:56.309Z,10.20
2022-11-12T19:35:48.578Z,10.20
2022-11-12T19:38:40.816Z,10.20
2022-11-12T19:41:32.957Z,10.10
2022-11-12T19:44:25.112Z,10.10
2022-11-12T19:47:17.255Z,10.10
2022-11-12T19:50:09.859Z,10.10
2022-11-12T19:53:02.076Z,10.00
2022-11-12T19:55:54.194Z,10.00
2022-11-12T19:58:46.784Z,10.00
2022-11-12T20:01:38.953Z,10.00
2022-11-12T20:04:31.096Z,10.00
2022-11-12T20:07:23.341Z,9.90
2022-11-12T20:10:15.781Z,9.90
2022-11-12T20:13:07.986Z,9.90
2022-11-12T20:16:05.240Z,9.90
2022-11-12T20:18:57.473Z,9.90
2022-11-12T20:21:49.571Z,9.80
2022-11-12T20:24:41.702Z,9.80
2022-11-12T20:27:33.881Z,9.80
2022-11-12T20:30:26.108Z,9.70
2022-11-12T20:33:18.227Z,9.70
2022-11-12T20:36:13.146Z,9.70
2022-11-12T20:39:05.338Z,9.70
2022-11-12T20:41:57.454Z,9.60
2022-11-12T20:44:49.578Z,9.60
2022-11-12T20:47:41.812Z,9.60
2022-11-12T20:50:33.953Z,9.40
2022-11-12T20:53:26.089Z,9.00
2022-11-12T20:56:23.198Z,8.90
2022-11-12T20:59:15.307Z,8.60
2022-11-12T21:02:09.811Z,8.30
2022-11-12T21:05:02.039Z,8.00
2022-11-12T21:07:56.114Z,7.90
2022-11-12T21:10:51.116Z,7.90
2022-11-12T21:13:44.018Z,7.80
2022-11-12T21:16:36.150Z,7.80
2022-11-12T21:19:28.254Z,7.80
2022-11-12T21:22:20.397Z,7.90
2022-11-12T21:25:12.562Z,7.90
2022-11-12T21:28:05.658Z,7.90
2022-11-12T21:31:09.235Z,7.90
2022-11-12T21:34:07.067Z,7.90
2022-11-12T21:36:59.295Z,7.80
2022-11-12T21:39:51.508Z,7.80
2022-11-12T21:42:45.056Z,7.80
2022-11-12T21:45:37.251Z,7.80
2022-11-12T21:48:29.930Z,7.80
2022-11-12T21:51:25.290Z,7.80
2022-11-12T21:54:17.410Z,7.80
2022-11-12T21:57:09.581Z,7.80
2022-11-12T22:00:26.473Z,7.80
2022-11-12T22:03:13.870Z,7.80
2022-11-12T22:06:07.105Z,7.80
2022-11-12T22:08:59.273Z,7.60
2022-11-12T22:11:51.380Z,7.40
2022-11-12T22:14:43.562Z,7.30
2022-11-12T22:17:35.672Z,7.10
2022-11-12T22:20:27.796Z,7.10
2022-11-12T22:23:19.989Z,7.10
2022-11-12T22:26:18.169Z,7.10
2022-11-12T22:29:10.299Z,7.10
2022-11-12T22:32:02.427Z,7.00
2022-11-12T22:34:54.645Z,7.00
2022-11-12T22:37:46.797Z,7.10
2022-11-12T22:40:39.186Z,7.30
2022-11-12T22:43:32.709Z,7.40
2022-11-12T22:46:27.762Z,7.20
2022-11-12T22:49:19.951Z,7.10
2022-11-12T22:52:12.051Z,7.00
2022-11-12T22:55:04.828Z,6.90
2022-11-12T22:57:59.695Z,6.80
2022-11-12T23:00:52.079Z,6.70
2022-11-12T23:03:44.244Z,6.60
2022-11-12T23:06:36.783Z,6.60
2022-11-12T23:09:28.971Z,6.60
2022-11-12T23:12:21.166Z,6.60
2022-11-12T23:15:13.299Z,6.50
2022-11-12T23:18:05.520Z,6.60
2022-11-12T23:21:09.430Z,6.60
2022-11-12T23:24:01.585Z,6.50
2022-11-12T23:26:53.704Z,6.50
2022-11-12T23:29:45.811Z,6.40
2022-11-12T23:32:37.925Z,6.50
2022-11-12T23:35:30.511Z,6.50
2022-11-12T23:38:22.620Z,6.50
2022-11-12T23:41:18.725Z,6.30
2022-11-12T23:44:10.881Z,6.20
2022-11-12T23:47:03.023Z,6.10
2022-11-12T23:49:55.150Z,6.00
2022-11-12T23:52:47.258Z,5.90
2022-11-12T23:55:44.084Z,5.80
2022-11-12T23:58:37.003Z,5.80
